PWSweather.com
Personal Weather Stations
Station Observations
KNJROCKY2
Rocky Hill, NJ 08553

Rocky Hill, NJ 08553

Lat: 40.402, Lon: -74.639

Elevation: 125

Station Type: DAVIS WX200

http://www.tw-zone.com/page3.htm

High Low Average
Temperature 67.2°F19.6°C 46.3°F7.9°C 55.3°F12.9°C
Dew Point 45.8°F7.7°C 32.7°F0.4°C 40.0°F4.4°C
Winds 9.0 mph 14.5 kmh Calm Calm 2.0 mph SW3.2 kmh SW
Wind Gusts 15.0 mph24.1 kmh -- 4.0 mph6.4 kmh
Humidity 81% 42% 57%
Pressure 30.05 in1017.6 mb 29.92 in1013.2 mb -
Precipitation 0.00 in0.0 mm - -
Hour Temp Dew Point Humidity Winds Wind Gusts Pressure Precip Precip Rate Daily Precip Total
12:00 AM 51.4°F10.8°C 32.4°F0.2°C 48% 2.0 mph WSW3.2 kmh WSW 2.0 mph3.2 kmh 30.06 in1017.9 mb 0.00 in0.0 mm 0.00 in/hr0.0 mm/hr 0.00 in0.0 mm
12:30 AM 50.0°F10.0°C 32.6°F0.3°C 51% 1.0 mph SSW1.6 kmh SSW 2.0 mph3.2 kmh 30.06 in1017.9 mb 0.00 in0.0 mm 0.00 in/hr0.0 mm/hr 0.00 in0.0 mm
01:00 AM 49.6°F9.8°C 32.7°F0.4°C 52% Calm Calm -- 30.05 in1017.6 mb 0.00 in0.0 mm 0.00 in/hr0.0 mm/hr 0.00 in0.0 mm
02:00 AM 49.8°F9.9°C 32.9°F0.5°C 52% 2.0 mph S3.2 kmh S 2.0 mph3.2 kmh 30.03 in1016.9 mb 0.00 in0.0 mm 0.00 in/hr0.0 mm/hr 0.00 in0.0 mm
02:30 AM 49.1°F9.5°C 33.2°F0.7°C 54% Calm Calm -- 30.03 in1016.9 mb 0.00 in0.0 mm 0.00 in/hr0.0 mm/hr 0.00 in0.0 mm
03:00 AM 49.2°F9.6°C 33.7°F0.9°C 55% 1.0 mph S1.6 kmh S 1.0 mph1.6 kmh 30.02 in1016.6 mb 0.00 in0.0 mm 0.00 in/hr0.0 mm/hr 0.00 in0.0 mm
03:30 AM 49.4°F9.7°C 33.5°F0.8°C 54% 4.0 mph SE6.4 kmh SE 4.0 mph6.4 kmh 30.02 in1016.6 mb 0.00 in0.0 mm 0.00 in/hr0.0 mm/hr 0.00 in0.0 mm
04:00 AM 49.6°F9.8°C 33.7°F0.9°C 54% 2.0 mph WSW3.2 kmh WSW 3.0 mph4.8 kmh 30.01 in1016.3 mb 0.00 in0.0 mm 0.00 in/hr0.0 mm/hr 0.00 in0.0 mm
04:30 AM 50.8°F10.4°C 33.8°F1.0°C 52% 3.0 mph S4.8 kmh S 5.0 mph8.0 kmh 30.00 in1015.9 mb 0.00 in0.0 mm 0.00 in/hr0.0 mm/hr 0.00 in0.0 mm
05:00 AM 51.1°F10.6°C 34.1°F1.2°C 52% 2.0 mph ESE3.2 kmh ESE 4.0 mph6.4 kmh 29.99 in1015.6 mb 0.00 in0.0 mm 0.00 in/hr0.0 mm/hr 0.00 in0.0 mm
05:30 AM 51.4°F10.8°C 34.4°F1.3°C 52% 3.0 mph S4.8 kmh S 6.0 mph9.7 kmh 30.00 in1015.9 mb 0.00 in0.0 mm 0.00 in/hr0.0 mm/hr 0.00 in0.0 mm
06:00 AM 49.8°F9.9°C 38.1°F3.4°C 64% Calm Calm 1.0 mph1.6 kmh 29.99 in1015.6 mb 0.00 in0.0 mm 0.00 in/hr0.0 mm/hr 0.00 in0.0 mm
06:30 AM 49.2°F9.6°C 36.8°F2.7°C 62% Calm Calm -- 30.00 in1015.9 mb 0.00 in0.0 mm 0.00 in/hr0.0 mm/hr 0.00 in0.0 mm
07:00 AM 49.1°F9.5°C 36.3°F2.4°C 61% Calm Calm -- 30.00 in1015.9 mb 0.00 in0.0 mm 0.00 in/hr0.0 mm/hr 0.00 in0.0 mm
07:30 AM 48.2°F9.0°C 40.0°F4.4°C 73% 1.0 mph S1.6 kmh S 1.0 mph1.6 kmh 30.00 in1015.9 mb 0.01 in0.3 mm 0.02 in/hr0.5 mm/hr 0.01 in0.3 mm
08:00 AM 46.3°F7.9°C 40.8°F4.9°C 81% 4.0 mph SE6.4 kmh SE 4.0 mph6.4 kmh 29.99 in1015.6 mb 0.02 in0.5 mm 0.02 in/hr0.5 mm/hr 0.02 in0.5 mm
08:30 AM 46.6°F8.1°C 40.5°F4.7°C 79% 2.0 mph S3.2 kmh S 3.0 mph4.8 kmh 30.00 in1015.9 mb 0.02 in0.5 mm 0.00 in/hr0.0 mm/hr 0.02 in0.5 mm
09:00 AM 46.6°F8.1°C 40.8°F4.9°C 80% Calm Calm -- 29.99 in1015.6 mb 0.01 in0.3 mm 0.00 in/hr0.0 mm/hr 0.02 in0.5 mm
09:30 AM 47.6°F8.7°C 40.8°F4.9°C 77% 2.0 mph S3.2 kmh S 2.0 mph3.2 kmh 30.00 in1015.9 mb 0.00 in0.0 mm 0.00 in/hr0.0 mm/hr 0.02 in0.5 mm
10:00 AM 50.0°F10.0°C 41.0°F5.0°C 71% Calm Calm 1.0 mph1.6 kmh 30.00 in1015.9 mb 0.00 in0.0 mm 0.00 in/hr0.0 mm/hr 0.02 in0.5 mm
10:30 AM 50.5°F10.3°C 41.5°F5.3°C 71% 2.0 mph ESE3.2 kmh ESE 3.0 mph4.8 kmh 29.99 in1015.6 mb 0.00 in0.0 mm 0.00 in/hr0.0 mm/hr 0.02 in0.5 mm
11:00 AM 53.6°F12.0°C 41.3°F5.2°C 63% 1.0 mph SW1.6 kmh SW 2.0 mph3.2 kmh 29.98 in1015.2 mb 0.00 in0.0 mm 0.00 in/hr0.0 mm/hr 0.02 in0.5 mm
11:30 AM 56.7°F13.7°C 42.1°F5.6°C 58% 4.0 mph NW6.4 kmh NW 6.0 mph9.7 kmh 29.98 in1015.2 mb 0.00 in0.0 mm 0.00 in/hr0.0 mm/hr 0.02 in0.5 mm
12:00 PM 59.0°F15.0°C 41.9°F5.5°C 53% 2.0 mph WNW3.2 kmh WNW 2.0 mph3.2 kmh 29.97 in1014.9 mb 0.00 in0.0 mm 0.00 in/hr0.0 mm/hr 0.02 in0.5 mm
12:30 PM 62.2°F16.8°C 42.3°F5.7°C 48% Calm Calm 1.0 mph1.6 kmh 29.96 in1014.6 mb 0.00 in0.0 mm 0.00 in/hr0.0 mm/hr 0.02 in0.5 mm
01:00 PM 62.9°F17.2°C 43.5°F6.4°C 49% 9.0 mph W14.5 kmh W 14.0 mph22.5 kmh 29.93 in1013.5 mb 0.00 in0.0 mm 0.00 in/hr0.0 mm/hr 0.02 in0.5 mm
01:30 PM 64.0°F17.8°C 44.5°F6.9°C 49% 4.0 mph SSW6.4 kmh SSW 6.0 mph9.7 kmh 29.93 in1013.5 mb 0.00 in0.0 mm 0.00 in/hr0.0 mm/hr 0.02 in0.5 mm
02:00 PM 65.3°F18.5°C 45.1°F7.3°C 48% 4.0 mph WSW6.4 kmh WSW 5.0 mph8.0 kmh 29.92 in1013.2 mb 0.00 in0.0 mm 0.00 in/hr0.0 mm/hr 0.02 in0.5 mm
02:30 PM 64.9°F18.3°C 45.3°F7.4°C 49% 6.0 mph WNW9.7 kmh WNW 6.0 mph9.7 kmh 29.92 in1013.2 mb 0.00 in0.0 mm 0.00 in/hr0.0 mm/hr 0.02 in0.5 mm
03:00 PM 65.4°F18.6°C 45.8°F7.7°C 49% 6.0 mph SW9.7 kmh SW 15.0 mph24.1 kmh 29.92 in1013.2 mb 0.00 in0.0 mm 0.00 in/hr0.0 mm/hr 0.02 in0.5 mm
03:30 PM 67.2°F19.6°C 44.6°F7.0°C 44% 5.0 mph NW8.0 kmh NW 5.0 mph8.0 kmh 29.92 in1013.2 mb 0.00 in0.0 mm 0.00 in/hr0.0 mm/hr 0.02 in0.5 mm
04:00 PM 66.4°F19.1°C 42.6°F5.9°C 42% 4.0 mph WSW6.4 kmh WSW 7.0 mph11.3 kmh 29.92 in1013.2 mb 0.00 in0.0 mm 0.00 in/hr0.0 mm/hr 0.02 in0.5 mm
04:30 PM 66.3°F19.1°C 42.5°F5.8°C 42% 6.0 mph W9.7 kmh W 9.0 mph14.5 kmh 29.92 in1013.2 mb 0.00 in0.0 mm 0.00 in/hr0.0 mm/hr 0.02 in0.5 mm
05:00 PM 64.8°F18.2°C 43.0°F6.1°C 45% 4.0 mph WNW6.4 kmh WNW 7.0 mph11.3 kmh 29.93 in1013.5 mb 0.00 in0.0 mm 0.00 in/hr0.0 mm/hr 0.02 in0.5 mm
05:30 PM 62.4°F16.9°C 43.5°F6.4°C 50% 4.0 mph NW6.4 kmh NW 6.0 mph9.7 kmh 29.94 in1013.9 mb 0.00 in0.0 mm 0.00 in/hr0.0 mm/hr 0.02 in0.5 mm
06:00 PM 60.6°F15.9°C 43.9°F6.6°C 54% 2.0 mph W3.2 kmh W 3.0 mph4.8 kmh 29.95 in1014.2 mb 0.00 in0.0 mm 0.00 in/hr0.0 mm/hr 0.02 in0.5 mm
06:30 PM 59.1°F15.1°C 43.4°F6.3°C 56% 1.0 mph NW1.6 kmh NW 1.0 mph1.6 kmh 29.96 in1014.6 mb 0.00 in0.0 mm 0.00 in/hr0.0 mm/hr 0.02 in0.5 mm
07:00 PM 57.3°F14.1°C 43.1°F6.2°C 59% 1.0 mph WNW1.6 kmh WNW 1.0 mph1.6 kmh 29.97 in1014.9 mb 0.00 in0.0 mm 0.00 in/hr0.0 mm/hr 0.02 in0.5 mm
07:30 PM 54.8°F12.7°C 42.5°F5.8°C 63% Calm Calm -- 29.98 in1015.2 mb 0.00 in0.0 mm 0.00 in/hr0.0 mm/hr 0.02 in0.5 mm
08:00 PM 52.4°F11.3°C 42.2°F5.7°C 68% Calm Calm -- 29.98 in1015.2 mb 0.00 in0.0 mm 0.00 in/hr0.0 mm/hr 0.02 in0.5 mm
08:30 PM 51.3°F10.7°C 41.9°F5.5°C 70% 3.0 mph WNW4.8 kmh WNW 3.0 mph4.8 kmh 29.99 in1015.6 mb 0.00 in0.0 mm 0.00 in/hr0.0 mm/hr 0.02 in0.5 mm
09:00 PM 51.3°F10.7°C 41.1°F5.1°C 68% 1.0 mph NW1.6 kmh NW 1.0 mph1.6 kmh 30.00 in1015.9 mb 0.00 in0.0 mm 0.00 in/hr0.0 mm/hr 0.02 in0.5 mm
09:30 PM 50.3°F10.2°C 40.5°F4.7°C 69% Calm Calm -- 30.00 in1015.9 mb 0.00 in0.0 mm 0.00 in/hr0.0 mm/hr 0.02 in0.5 mm
10:00 PM 49.5°F9.7°C 40.1°F4.5°C 70% Calm Calm -- 30.00 in1015.9 mb 0.00 in0.0 mm 0.00 in/hr0.0 mm/hr 0.02 in0.5 mm
10:30 PM 47.3°F8.5°C 39.8°F4.3°C 75% Calm Calm -- 30.01 in1016.3 mb 0.00 in0.0 mm 0.00 in/hr0.0 mm/hr 0.02 in0.5 mm
11:00 PM 46.3°F7.9°C 39.5°F4.2°C 77% 2.0 mph NW3.2 kmh NW 3.0 mph4.8 kmh 30.01 in1016.3 mb 0.00 in0.0 mm 0.00 in/hr0.0 mm/hr 0.02 in0.5 mm
11:30 PM 46.4°F8.0°C 38.9°F3.8°C 75% Calm Calm 1.0 mph1.6 kmh 30.02 in1016.6 mb 0.00 in0.0 mm 0.00 in/hr0.0 mm/hr 0.02 in0.5 mm